Time;durP1;ratioP1;P1;durP2;ratioP2;P2;SDS_P1;SDS_P2;PMS_P1;PMS_P2;Temp;Humidity;BMP_temperature;BMP_pressure;BME280_temperature;BME280_humidity;BME280_pressure;Samples;Min_cycle;Max_cycle;Signal;HPM_P1;HPM_P2
2021/03/20 00:00:47;;;;;;;3.00;2.80;;;2.90;99.90;;;;;;5058971;28;20171;-47
2021/03/20 00:03:12;;;;;;;3.00;2.70;;;2.90;99.90;;;;;;5059286;28;20409;-53
2021/03/20 00:05:38;;;;;;;2.83;2.57;;;2.80;99.90;;;;;;5074280;28;20468;-59
2021/03/20 00:08:05;;;;;;;3.03;2.73;;;2.70;99.90;;;;;;5055688;28;20175;-57
2021/03/20 00:10:31;;;;;;;2.70;2.50;;;2.70;99.90;;;;;;5075430;28;20776;-52
2021/03/20 00:12:57;;;;;;;2.90;2.70;;;2.60;99.90;;;;;;5074066;28;20409;-49
2021/03/20 00:15:25;;;;;;;2.67;2.43;;;2.60;99.90;;;;;;5078018;28;20440;-54
2021/03/20 00:17:52;;;;;;;3.10;2.87;;;2.60;99.90;;;;;;5074063;28;20810;-52
2021/03/20 00:20:25;;;;;;;3.40;3.10;;;2.50;99.90;;;;;;5075904;28;20397;-49
2021/03/20 00:22:51;;;;;;;2.80;2.60;;;2.50;99.90;;;;;;5076265;28;20470;-52
2021/03/20 00:25:18;;;;;;;3.03;2.80;;;2.40;99.90;;;;;;5078432;28;20457;-53
2021/03/20 00:27:44;;;;;;;2.60;2.40;;;2.40;99.90;;;;;;5076193;28;20166;-58
2021/03/20 00:30:10;;;;;;;3.07;2.67;;;2.40;99.90;;;;;;5074825;28;20465;-54
2021/03/20 00:32:36;;;;;;;2.93;2.73;;;2.40;99.90;;;;;;5077393;28;20178;-49
2021/03/20 00:35:07;;;;;;;3.07;2.83;;;2.40;99.90;;;;;;5072500;28;20518;-52
2021/03/20 00:37:33;;;;;;;3.17;2.87;;;2.40;99.90;;;;;;5075449;28;20210;-55
2021/03/20 00:39:59;;;;;;;2.93;2.73;;;2.40;99.90;;;;;;5072449;28;20462;-59
2021/03/20 00:42:25;;;;;;;4.90;2.97;;;2.30;99.90;;;;;;5078054;28;20405;-56
2021/03/20 00:44:50;;;;;;;3.03;2.70;;;2.30;99.90;;;;;;5075023;28;20249;-58
2021/03/20 00:47:16;;;;;;;2.97;2.77;;;2.30;99.90;;;;;;5077082;28;20173;-50
2021/03/20 00:49:42;;;;;;;3.20;2.90;;;2.30;99.90;;;;;;5076225;28;20549;-59
2021/03/20 00:52:07;;;;;;;3.23;2.93;;;2.30;99.90;;;;;;5074247;28;20248;-52
2021/03/20 00:54:33;;;;;;;3.47;3.13;;;2.30;99.90;;;;;;5073369;28;20545;-52
2021/03/20 00:56:59;;;;;;;4.13;3.43;;;2.40;99.90;;;;;;5075614;28;20644;-51
2021/03/20 00:59:25;;;;;;;3.60;3.00;;;2.40;99.90;;;;;;5077908;28;20166;-59
2021/03/20 01:01:50;;;;;;;2.60;2.40;;;2.40;99.90;;;;;;5078200;28;20212;-59
2021/03/20 01:04:16;;;;;;;2.80;2.60;;;2.40;99.90;;;;;;5078654;28;20397;-49
2021/03/20 01:06:41;;;;;;;3.03;2.80;;;2.40;99.90;;;;;;5075476;28;20186;-54
2021/03/20 01:09:07;;;;;;;3.40;3.10;;;2.40;99.90;;;;;;5074474;28;20167;-52
2021/03/20 01:11:33;;;;;;;3.13;2.83;;;2.50;99.90;;;;;;5078147;28;20174;-54
2021/03/20 01:13:59;;;;;;;3.13;2.93;;;2.50;99.90;;;;;;5076352;28;20219;-59
2021/03/20 01:16:25;;;;;;;3.23;2.97;;;2.50;99.90;;;;;;5080699;28;20669;-55
2021/03/20 01:18:52;;;;;;;3.10;2.87;;;2.50;99.90;;;;;;5074374;28;20462;-49
2021/03/20 01:21:18;;;;;;;3.00;2.80;;;2.50;99.90;;;;;;5077020;28;20171;-54
2021/03/20 01:23:43;;;;;;;4.17;3.30;;;2.50;99.90;;;;;;5079308;28;20504;-51
2021/03/20 01:26:09;;;;;;;3.27;2.97;;;2.50;99.90;;;;;;5076188;28;20191;-56
2021/03/20 01:28:36;;;;;;;3.50;3.20;;;2.50;99.90;;;;;;5077587;28;20208;-50
2021/03/20 01:31:03;;;;;;;3.53;3.23;;;2.40;99.90;;;;;;5072923;28;20626;-52
2021/03/20 01:33:29;;;;;;;3.20;2.83;;;2.40;99.90;;;;;;5077553;28;20405;-56
2021/03/20 01:35:55;;;;;;;3.23;2.93;;;2.40;99.90;;;;;;5075609;28;20432;-52
2021/03/20 01:38:21;;;;;;;3.17;2.87;;;2.40;99.90;;;;;;5074679;28;20460;-55
2021/03/20 01:40:51;;;;;;;3.10;2.80;;;2.30;99.90;;;;;;5081035;28;20171;-57
2021/03/20 01:43:20;;;;;;;3.33;3.03;;;2.30;99.90;;;;;;5076456;28;20443;-49
2021/03/20 01:45:45;;;;;;;2.93;2.73;;;2.30;99.90;;;;;;5080207;28;20771;-56
2021/03/20 01:48:21;;;;;;;3.00;2.77;;;2.40;99.90;;;;;;5079460;28;20411;-54
2021/03/20 01:50:50;;;;;;;2.90;2.70;;;2.40;99.90;;;;;;5082880;28;20193;-53
2021/03/20 01:53:46;;;;;;;3.87;3.13;;;2.30;99.90;;;;;;5079081;28;20419;-53
2021/03/20 01:56:17;;;;;;;3.33;3.00;;;2.40;99.90;;;;;;5079241;28;20425;-52
2021/03/20 01:58:43;;;;;;;3.40;3.10;;;2.40;99.90;;;;;;5083523;28;20452;-50
2021/03/20 02:01:17;;;;;;;3.40;3.10;;;2.40;99.90;;;;;;5076593;28;20880;-55
2021/03/20 02:03:44;;;;;;;3.70;3.20;;;2.50;99.90;;;;;;5080808;28;20522;-52
2021/03/20 02:06:10;;;;;;;3.47;3.10;;;2.50;99.90;;;;;;5076560;28;20459;-52
2021/03/20 02:08:37;;;;;;;3.17;2.87;;;2.50;99.90;;;;;;5082136;28;20419;-57
2021/03/20 02:11:28;;;;;;;4.90;3.20;;;2.50;99.90;;;;;;5076292;28;20405;-54
2021/03/20 02:14:24;;;;;;;3.50;3.20;;;2.60;99.90;;;;;;5081156;28;20405;-49
2021/03/20 02:17:26;;;;;;;4.43;2.97;;;2.50;99.90;;;;;;5078631;28;20436;-50
2021/03/20 02:20:21;;;;;;;3.47;3.17;;;2.30;99.90;;;;;;5080371;28;20404;-50
2021/03/20 02:23:07;;;;;;;2.93;2.70;;;2.20;99.90;;;;;;5079421;28;20401;-54
2021/03/20 02:25:48;;;;;;;3.70;3.20;;;2.10;99.90;;;;;;5078441;28;20428;-59
2021/03/20 02:28:52;;;;;;;3.70;3.17;;;1.90;99.90;;;;;;5076466;28;20443;-57
2021/03/20 02:31:47;;;;;;;3.60;3.30;;;1.90;99.90;;;;;;5078735;28;20408;-54
2021/03/20 02:34:28;;;;;;;3.80;3.10;;;2.00;99.90;;;;;;5077821;28;20403;-53
2021/03/20 02:37:06;;;;;;;3.70;3.00;;;2.00;99.90;;;;;;5077754;28;20486;-55
2021/03/20 02:39:48;;;;;;;3.77;3.10;;;1.90;99.90;;;;;;5075961;28;20784;-53
2021/03/20 02:42:37;;;;;;;3.27;2.97;;;1.90;99.90;;;;;;5076691;28;20389;-58
2021/03/20 02:45:25;;;;;;;3.87;3.07;;;1.90;99.90;;;;;;5078110;28;20432;-49
2021/03/20 02:48:06;;;;;;;3.20;2.70;;;1.90;99.90;;;;;;5059673;28;20408;-50
2021/03/20 02:50:50;;;;;;;2.87;2.67;;;1.90;99.90;;;;;;5057560;28;20441;-58
2021/03/20 02:53:23;;;;;;;3.20;2.90;;;1.70;99.90;;;;;;5059656;28;20406;-51
2021/03/20 02:55:52;;;;;;;3.27;2.97;;;1.70;99.90;;;;;;5057668;28;20421;-50
2021/03/20 02:58:27;;;;;;;4.47;3.00;;;1.60;99.90;;;;;;5055569;28;20937;-49
2021/03/20 03:00:59;;;;;;;3.20;2.90;;;1.70;99.90;;;;;;5062138;28;20393;-52
2021/03/20 03:03:29;;;;;;;3.43;3.00;;;1.80;99.90;;;;;;5057269;28;20401;-56
2021/03/20 03:06:16;;;;;;;4.43;3.57;;;1.70;99.90;;;;;;5057273;28;20417;-53
2021/03/20 03:08:46;;;;;;;3.00;2.80;;;1.70;99.90;;;;;;5058130;28;20418;-55
2021/03/20 03:11:17;;;;;;;3.27;2.97;;;1.70;99.90;;;;;;5061493;28;20406;-56
2021/03/20 03:13:49;;;;;;;3.43;3.13;;;1.80;99.90;;;;;;5057750;28;20731;-56
2021/03/20 03:16:32;;;;;;;4.00;3.27;;;1.80;99.90;;;;;;5057281;28;20491;-55
2021/03/20 03:19:04;;;;;;;3.57;3.27;;;1.90;99.90;;;;;;5059141;28;20453;-54
2021/03/20 03:21:32;;;;;;;3.97;3.57;;;1.90;99.90;;;;;;5056847;28;20874;-52
2021/03/20 03:23:58;;;;;;;3.83;3.50;;;1.90;99.90;;;;;;5054835;28;20445;-49
2021/03/20 03:26:35;;;;;;;4.00;3.50;;;1.90;99.90;;;;;;5058989;28;20437;-54
2021/03/20 03:29:10;;;;;;;3.93;3.53;;;1.90;99.90;;;;;;5055186;28;20198;-52
2021/03/20 03:32:01;;;;;;;4.30;3.80;;;2.00;99.90;;;;;;5057941;28;21101;-56
2021/03/20 03:34:58;;;;;;;4.50;4.07;;;2.00;99.90;;;;;;5065543;28;20426;-50
2021/03/20 03:37:58;;;;;;;3.80;3.47;;;2.00;99.90;;;;;;5063933;28;20951;-59
2021/03/20 03:40:36;;;;;;;4.27;3.50;;;2.00;99.90;;;;;;5065986;28;20428;-47
2021/03/20 03:43:02;;;;;;;4.17;3.77;;;2.00;99.90;;;;;;5061065;28;20425;-53
2021/03/20 03:45:28;;;;;;;4.00;3.60;;;2.10;99.90;;;;;;5062585;28;20476;-57
2021/03/20 03:47:56;;;;;;;3.77;3.40;;;2.10;99.90;;;;;;5064568;28;20421;-57
2021/03/20 03:50:30;;;;;;;4.30;3.90;;;2.10;99.90;;;;;;5067824;28;20441;-55
2021/03/20 03:52:55;;;;;;;4.47;4.03;;;2.20;99.90;;;;;;5067778;28;20832;-53
2021/03/20 03:55:21;;;;;;;4.10;3.70;;;2.20;99.90;;;;;;5064164;28;20478;-52
2021/03/20 03:58:06;;;;;;;3.93;3.53;;;2.20;99.90;;;;;;5076236;28;20670;-51
2021/03/20 04:00:39;;;;;;;5.13;4.10;;;2.20;99.90;;;;;;5081275;28;20461;-56
2021/03/20 04:03:22;;;;;;;4.07;3.60;;;2.20;99.90;;;;;;5064623;28;20501;-49
2021/03/20 04:06:18;;;;;;;4.07;3.53;;;2.20;99.90;;;;;;5073588;28;20462;-57
2021/03/20 04:08:50;;;;;;;4.43;4.00;;;2.10;99.90;;;;;;5070860;28;20417;-50
2021/03/20 04:11:32;;;;;;;3.60;3.30;;;2.10;99.90;;;;;;5067530;28;20789;-52
2021/03/20 04:14:15;;;;;;;4.00;3.60;;;2.10;99.90;;;;;;5065388;28;20519;-57
2021/03/20 04:16:54;;;;;;;3.60;3.30;;;2.00;99.90;;;;;;5064088;28;20433;-54
2021/03/20 04:19:40;;;;;;;5.67;3.80;;;2.00;99.90;;;;;;5054375;28;20424;-54
2021/03/20 04:22:13;;;;;;;3.80;3.40;;;2.00;99.90;;;;;;5053963;28;20398;-58
2021/03/20 04:25:01;;;;;;;3.50;3.20;;;2.00;99.90;;;;;;5055193;28;20984;-50
2021/03/20 04:27:32;;;;;;;3.53;3.23;;;2.00;99.90;;;;;;5054178;28;20403;-48
2021/03/20 04:30:21;;;;;;;3.90;3.50;;;1.90;99.90;;;;;;5060888;28;20439;-55
2021/03/20 04:32:48;;;;;;;4.93;3.63;;;2.00;99.90;;;;;;5074041;28;20397;-48
2021/03/20 04:35:36;;;;;;;4.20;3.80;;;1.90;99.90;;;;;;5076125;28;20504;-54
2021/03/20 04:38:03;;;;;;;4.20;3.77;;;1.90;99.90;;;;;;5078651;28;20456;-50
2021/03/20 04:40:31;;;;;;;3.43;3.13;;;1.90;99.90;;;;;;5076307;28;20495;-58
2021/03/20 04:42:58;;;;;;;4.80;3.40;;;1.80;99.90;;;;;;5074016;28;20414;-53
2021/03/20 04:45:29;;;;;;;3.73;3.43;;;1.80;99.90;;;;;;5063546;28;20451;-50
2021/03/20 04:48:11;;;;;;;3.97;3.57;;;1.80;99.90;;;;;;5066084;28;20426;-48
2021/03/20 04:50:37;;;;;;;4.17;3.40;;;1.70;99.90;;;;;;5068056;28;20567;-55
2021/03/20 04:53:03;;;;;;;3.60;3.30;;;1.70;99.90;;;;;;5065605;28;20413;-55
2021/03/20 04:55:29;;;;;;;4.10;3.70;;;1.70;99.90;;;;;;5060927;28;20448;-52
2021/03/20 04:58:31;;;;;;;4.10;3.70;;;1.70;99.90;;;;;;5073448;28;20209;-56
2021/03/20 05:01:08;;;;;;;3.70;3.40;;;1.80;99.90;;;;;;5064656;28;20432;-51
2021/03/20 05:03:46;;;;;;;3.47;3.17;;;1.80;99.90;;;;;;5057844;28;20433;-51
2021/03/20 05:06:15;;;;;;;3.80;3.40;;;1.70;99.90;;;;;;5060215;28;20437;-49
2021/03/20 05:08:46;;;;;;;3.90;3.53;;;1.70;99.90;;;;;;5063198;28;20932;-55
2021/03/20 05:11:46;;;;;;;4.50;3.67;;;1.70;99.90;;;;;;5062349;28;20942;-51
2021/03/20 05:14:38;;;;;;;5.50;3.93;;;1.80;99.90;;;;;;5057046;28;20986;-57
2021/03/20 05:17:10;;;;;;;4.30;3.80;;;1.80;99.90;;;;;;5066822;28;20413;-51
2021/03/20 05:19:36;;;;;;;4.07;3.67;;;1.80;99.90;;;;;;5076054;28;20401;-50
2021/03/20 05:22:02;;;;;;;3.60;3.30;;;1.80;99.90;;;;;;5079285;28;20400;-51
2021/03/20 05:24:36;;;;;;;3.53;3.23;;;1.70;99.90;;;;;;5078151;28;20598;-54
2021/03/20 05:27:04;;;;;;;4.27;3.87;;;1.80;99.90;;;;;;5061536;28;20441;-57
2021/03/20 05:29:30;;;;;;;4.23;3.70;;;1.80;99.90;;;;;;5059326;28;20409;-51
2021/03/20 05:31:58;;;;;;;3.83;3.43;;;1.80;99.90;;;;;;5059891;28;20406;-49
2021/03/20 05:34:32;;;;;;;4.20;3.80;;;1.90;99.90;;;;;;5059425;28;20175;-51
2021/03/20 05:36:57;;;;;;;4.30;3.90;;;2.00;99.90;;;;;;5071272;28;20475;-57
2021/03/20 05:39:24;;;;;;;5.40;4.23;;;2.00;99.90;;;;;;5059550;28;20414;-50
2021/03/20 05:41:57;;;;;;;4.40;4.00;;;2.00;99.90;;;;;;5071280;28;20185;-50
2021/03/20 05:44:47;;;;;;;4.23;3.83;;;2.10;99.90;;;;;;5077011;28;20416;-54
2021/03/20 05:47:30;;;;;;;4.63;4.23;;;2.10;99.90;;;;;;5082144;28;20389;-58
2021/03/20 05:50:29;;;;;;;5.00;4.50;;;2.10;99.90;;;;;;5063663;28;20462;-55
2021/03/20 05:53:02;;;;;;;4.80;4.30;;;2.20;99.90;;;;;;5066988;28;20411;-51
2021/03/20 05:55:52;;;;;;;5.57;4.63;;;2.20;99.90;;;;;;5073131;28;20940;-51
2021/03/20 05:58:57;;;;;;;6.13;4.37;;;2.20;99.90;;;;;;5063115;28;20448;-53
2021/03/20 06:01:48;;;;;;;5.13;4.63;;;2.20;99.90;;;;;;5067782;28;20998;-54
2021/03/20 06:04:17;;;;;;;5.63;4.37;;;2.20;99.90;;;;;;5057846;28;20467;-54
2021/03/20 06:07:06;;;;;;;5.00;4.50;;;2.20;99.90;;;;;;5057425;28;20821;-52
2021/03/20 06:09:43;;;;;;;5.10;4.60;;;2.30;99.90;;;;;;5062418;28;20405;-55
2021/03/20 06:12:23;;;;;;;5.60;4.80;;;2.30;99.90;;;;;;5064647;28;20971;-56
2021/03/20 06:15:07;;;;;;;5.17;4.50;;;2.30;99.90;;;;;;5062928;28;20575;-50
2021/03/20 06:17:56;;;;;;;5.33;4.83;;;2.40;99.90;;;;;;5059913;28;20471;-51
2021/03/20 06:20:53;;;;;;;6.33;5.10;;;2.40;99.90;;;;;;5064994;28;20486;-50
2021/03/20 06:23:48;;;;;;;6.17;5.10;;;2.50;99.90;;;;;;5064006;28;20459;-48
2021/03/20 06:26:21;;;;;;;5.67;5.07;;;2.60;99.60;;;;;;5057184;28;20468;-54
2021/03/20 06:29:01;;;;;;;5.33;4.83;;;2.60;99.50;;;;;;5064808;28;20487;-53
2021/03/20 06:31:38;;;;;;;5.93;4.80;;;2.50;99.10;;;;;;5080585;28;20408;-55
2021/03/20 06:34:19;;;;;;;5.77;4.77;;;2.50;99.10;;;;;;5077444;28;20423;-55
2021/03/20 06:36:53;;;;;;;5.27;4.63;;;2.10;99.00;;;;;;5076854;28;20995;-54
2021/03/20 06:39:26;;;;;;;5.10;4.60;;;2.60;99.40;;;;;;5055822;28;20929;-56
2021/03/20 06:42:07;;;;;;;5.27;4.50;;;2.70;99.10;;;;;;5057736;28;20425;-52
2021/03/20 06:44:38;;;;;;;5.43;4.87;;;2.80;98.90;;;;;;5059904;28;20401;-56
2021/03/20 06:47:22;;;;;;;6.17;4.97;;;2.80;98.60;;;;;;5063898;28;20472;-50
2021/03/20 06:50:16;;;;;;;5.63;5.00;;;2.90;98.10;;;;;;5079729;28;20480;-50
2021/03/20 06:52:41;;;;;;;5.30;4.80;;;2.90;97.90;;;;;;5076809;28;20437;-55
2021/03/20 06:55:24;;;;;;;5.53;4.83;;;3.00;97.80;;;;;;5056984;28;20476;-54
2021/03/20 06:57:50;;;;;;;5.30;4.80;;;3.10;97.60;;;;;;5068218;28;20232;-55
2021/03/20 07:00:28;;;;;;;5.00;4.50;;;2.70;97.60;;;;;;5077031;28;20897;-51
2021/03/20 07:03:31;;;;;;;5.30;4.80;;;3.20;98.00;;;;;;5070805;28;20412;-50
2021/03/20 07:06:25;;;;;;;5.53;4.90;;;3.40;97.20;;;;;;5056622;28;20290;-57
2021/03/20 07:08:57;;;;;;;5.47;4.57;;;3.50;97.20;;;;;;5068507;28;20451;-56
2021/03/20 07:11:33;;;;;;;5.87;4.70;;;3.70;97.10;;;;;;5076796;28;20204;-50
2021/03/20 07:14:09;;;;;;;5.23;4.30;;;3.80;96.10;;;;;;5064906;28;20217;-56
2021/03/20 07:16:54;;;;;;;6.23;5.17;;;3.80;96.10;;;;;;5057563;28;20762;-49
2021/03/20 07:19:20;;;;;;;6.63;5.20;;;3.80;95.80;;;;;;5063590;28;20202;-50
2021/03/20 07:22:03;;;;;;;6.93;5.13;;;3.90;95.60;;;;;;5061844;28;20179;-53
2021/03/20 07:24:42;;;;;;;6.80;4.93;;;4.10;95.40;;;;;;5055664;28;20521;-52
2021/03/20 07:27:14;;;;;;;5.87;4.80;;;4.20;94.70;;;;;;5055101;28;20218;-55
2021/03/20 07:29:54;;;;;;;5.80;4.97;;;4.30;94.10;;;;;;5060018;28;20175;-54
2021/03/20 07:32:25;;;;;;;5.73;5.00;;;4.40;93.90;;;;;;5056525;28;20171;-51
2021/03/20 07:34:55;;;;;;;5.90;4.97;;;4.40;93.60;;;;;;5057178;28;20179;-55
2021/03/20 07:37:26;;;;;;;5.37;4.70;;;4.50;93.70;;;;;;5053731;28;20261;-49
2021/03/20 07:39:59;;;;;;;6.33;5.30;;;4.70;93.70;;;;;;5053971;28;20191;-57
2021/03/20 07:42:33;;;;;;;4.97;4.47;;;4.60;93.30;;;;;;5057455;28;20186;-58
2021/03/20 07:45:00;;;;;;;7.37;5.33;;;4.70;93.20;;;;;;5073103;28;20221;-58
2021/03/20 07:47:30;;;;;;;5.43;4.77;;;4.80;93.30;;;;;;5076474;28;20155;-58
2021/03/20 07:50:28;;;;;;;5.07;4.40;;;4.90;92.90;;;;;;5075138;28;20174;-52
2021/03/20 07:53:02;;;;;;;6.17;4.90;;;5.10;93.20;;;;;;5073865;28;20179;-53
2021/03/20 07:55:31;;;;;;;5.67;4.77;;;5.10;92.70;;;;;;5075230;28;20237;-49
2021/03/20 07:57:59;;;;;;;5.90;5.00;;;5.20;92.20;;;;;;5076457;28;20202;-58
2021/03/20 08:00:32;;;;;;;5.40;4.67;;;5.40;92.50;;;;;;5074684;28;20543;-49
2021/03/20 08:03:21;;;;;;;5.57;4.90;;;5.70;92.30;;;;;;5071623;28;20198;-57
2021/03/20 08:05:46;;;;;;;5.37;4.87;;;5.90;90.60;;;;;;5068530;28;20212;-53
2021/03/20 08:08:14;;;;;;;5.43;4.90;;;5.90;90.40;;;;;;5076909;28;20183;-53
2021/03/20 08:10:44;;;;;;;6.27;5.30;;;6.10;91.20;;;;;;5075474;28;20177;-49
2021/03/20 08:13:15;;;;;;;7.60;5.87;;;6.10;90.30;;;;;;5074802;28;20627;-50
2021/03/20 08:15:55;;;;;;;7.27;5.37;;;6.00;90.40;;;;;;5073848;28;20531;-53
2021/03/20 08:18:28;;;;;;;5.57;4.97;;;5.80;90.20;;;;;;5074952;28;20550;-52
2021/03/20 08:21:15;;;;;;;5.70;5.03;;;5.60;90.30;;;;;;5056274;28;20199;-56
2021/03/20 08:24:07;;;;;;;5.40;4.90;;;5.60;90.60;;;;;;5062602;28;20163;-50
2021/03/20 08:27:01;;;;;;;5.27;4.73;;;5.80;90.90;;;;;;5090965;28;20662;-51
2021/03/20 08:30:03;;;;;;;5.83;5.07;;;6.00;90.00;;;;;;5087722;28;20173;-56
2021/03/20 08:32:50;;;;;;;5.70;5.10;;;6.00;90.30;;;;;;5063433;28;20669;-51
2021/03/20 08:35:57;;;;;;;4.93;4.37;;;6.30;89.50;;;;;;5075704;28;20631;-55
2021/03/20 08:38:39;;;;;;;5.60;4.20;;;6.40;88.00;;;;;;5049780;28;20226;-49
2021/03/20 08:41:22;;;;;;;4.13;3.73;;;6.50;88.20;;;;;;5057690;28;20194;-49
2021/03/20 08:43:53;;;;;;;4.77;3.90;;;6.70;87.60;;;;;;5057697;28;20175;-50
2021/03/20 08:46:49;;;;;;;4.63;4.23;;;6.80;86.60;;;;;;5053456;28;20193;-50
2021/03/20 08:49:29;;;;;;;5.17;4.23;;;7.00;87.90;;;;;;5054777;28;20174;-53
2021/03/20 08:52:13;;;;;;;4.33;3.90;;;7.10;84.60;;;;;;5055291;28;20179;-53
2021/03/20 08:54:50;;;;;;;6.50;4.63;;;7.10;83.40;;;;;;5056289;28;20167;-56
2021/03/20 08:57:20;;;;;;;4.93;4.43;;;7.10;85.00;;;;;;5058759;28;20545;-49
2021/03/20 08:59:49;;;;;;;5.23;4.33;;;7.50;86.80;;;;;;5058199;28;20171;-54
2021/03/20 09:02:34;;;;;;;4.23;3.83;;;8.00;87.60;;;;;;5058503;28;20163;-51
2021/03/20 09:05:28;;;;;;;4.50;3.73;;;8.20;82.90;;;;;;5057895;28;20202;-55
2021/03/20 09:08:02;;;;;;;4.40;3.60;;;8.70;80.30;;;;;;5070509;28;20186;-56
2021/03/20 09:10:44;;;;;;;4.50;3.63;;;9.00;78.60;;;;;;5086177;28;20190;-56
2021/03/20 09:13:36;;;;;;;3.90;3.50;;;9.10;77.90;;;;;;5077457;28;20182;-51
2021/03/20 09:16:09;;;;;;;5.00;3.80;;;9.30;76.60;;;;;;5073254;28;20207;-52
2021/03/20 09:18:39;;;;;;;6.73;4.20;;;9.60;76.60;;;;;;5068900;28;20214;-52
2021/03/20 09:21:06;;;;;;;4.33;3.90;;;9.50;74.00;;;;;;5066757;28;20186;-55
2021/03/20 09:23:38;;;;;;;4.67;4.00;;;9.50;77.10;;;;;;5067497;28;20228;-51
2021/03/20 09:26:13;;;;;;;4.90;4.40;;;9.60;74.30;;;;;;5072996;28;20290;-51
2021/03/20 09:29:03;;;;;;;4.20;3.80;;;9.70;75.80;;;;;;5061310;28;20206;-55
2021/03/20 09:31:29;;;;;;;5.93;4.27;;;9.80;72.50;;;;;;5059106;28;20654;-51
2021/03/20 09:33:57;;;;;;;5.10;4.43;;;9.80;73.40;;;;;;5056580;28;20179;-52
2021/03/20 09:36:22;;;;;;;5.90;4.00;;;9.40;72.30;;;;;;5066566;28;20203;-55
2021/03/20 09:38:53;;;;;;;4.20;3.80;;;9.30;74.50;;;;;;5060476;28;20199;-49
2021/03/20 09:41:19;;;;;;;5.53;4.20;;;9.50;72.80;;;;;;5066276;28;20187;-54
2021/03/20 09:44:00;;;;;;;4.90;4.00;;;9.70;73.40;;;;;;5057255;28;20179;-55
2021/03/20 09:46:41;;;;;;;4.23;3.83;;;9.80;73.50;;;;;;5057940;28;20238;-51
2021/03/20 09:49:06;;;;;;;5.33;4.37;;;9.80;72.30;;;;;;5066408;28;20630;-49
2021/03/20 09:54:28;;;;;;;4.63;3.67;;;9.50;68.20;;;;;;5075723;28;20648;-51
2021/03/20 09:57:12;;;;;;;6.03;3.93;;;8.90;66.20;;;;;;5074139;28;20528;-55
2021/03/20 09:59:37;;;;;;;4.53;3.83;;;8.30;67.60;;;;;;5075473;28;20209;-53
2021/03/20 10:02:09;;;;;;;4.30;3.90;;;7.80;67.80;;;;;;5076614;28;20163;-54
2021/03/20 10:04:51;;;;;;;4.30;3.87;;;7.40;68.90;;;;;;5071609;28;20211;-49
2021/03/20 10:07:26;;;;;;;4.63;3.83;;;7.00;66.60;;;;;;5057245;28;20179;-48
2021/03/20 10:10:04;;;;;;;4.73;4.10;;;6.70;67.50;;;;;;5058643;28;20167;-55
2021/03/20 10:12:44;;;;;;;4.10;3.70;;;6.50;67.30;;;;;;5074115;28;20644;-52
2021/03/20 10:15:12;;;;;;;5.13;3.67;;;6.70;69.60;;;;;;5057759;28;20249;-49
2021/03/20 10:17:56;;;;;;;5.70;4.00;;;6.90;66.40;;;;;;5056891;28;20280;-56
2021/03/20 10:20:48;;;;;;;5.97;3.70;;;7.40;71.10;;;;;;5056183;28;20623;-48
2021/03/20 10:23:25;;;;;;;4.90;3.57;;;7.90;71.60;;;;;;5054502;28;20215;-53
2021/03/20 10:25:55;;;;;;;3.90;3.50;;;8.50;70.80;;;;;;5056673;28;20248;-51
2021/03/20 10:28:28;;;;;;;3.50;2.97;;;8.90;67.20;;;;;;5074673;28;20515;-49
2021/03/20 10:31:02;;;;;;;3.70;3.37;;;9.20;65.20;;;;;;5061406;28;20186;-55
2021/03/20 10:33:34;;;;;;;5.83;3.80;;;9.50;67.10;;;;;;5064491;28;20672;-53
2021/03/20 10:36:14;;;;;;;3.80;3.50;;;9.80;69.90;;;;;;5074071;28;20208;-52
2021/03/20 10:38:44;;;;;;;3.60;3.30;;;9.90;66.40;;;;;;5073005;28;20197;-50
2021/03/20 10:41:24;;;;;;;3.90;3.43;;;9.80;67.40;;;;;;5063708;28;20226;-49
2021/03/20 10:44:10;;;;;;;4.70;3.77;;;9.40;69.60;;;;;;5059385;28;20575;-52
2021/03/20 10:46:37;;;;;;;4.90;4.07;;;8.90;73.70;;;;;;5073136;28;20199;-56
2021/03/20 10:49:12;;;;;;;4.93;4.40;;;8.50;77.50;;;;;;5074760;28;20174;-53
2021/03/20 10:51:40;;;;;;;5.53;4.43;;;8.20;78.10;;;;;;5060275;28;20269;-56
2021/03/20 10:54:09;;;;;;;4.60;4.20;;;8.00;81.50;;;;;;5056333;28;20249;-50
2021/03/20 10:56:37;;;;;;;6.33;4.57;;;8.00;82.90;;;;;;5069549;28;20558;-49
2021/03/20 10:59:21;;;;;;;5.70;4.57;;;8.00;86.90;;;;;;5063843;28;20232;-51
2021/03/20 11:01:47;;;;;;;5.20;4.27;;;8.10;85.90;;;;;;5058797;28;20174;-53
2021/03/20 11:04:29;;;;;;;5.40;4.30;;;8.50;83.80;;;;;;5056999;28;20167;-50
2021/03/20 11:06:57;;;;;;;4.27;3.80;;;8.80;81.10;;;;;;5056664;28;20696;-54
2021/03/20 11:09:25;;;;;;;5.13;4.60;;;8.70;80.20;;;;;;5056461;28;20561;-56
2021/03/20 11:12:01;;;;;;;4.53;4.13;;;8.50;80.40;;;;;;5056515;28;20171;-53
2021/03/20 11:14:28;;;;;;;5.13;4.00;;;8.40;79.90;;;;;;5057861;28;20229;-53
2021/03/20 11:16:57;;;;;;;4.23;3.83;;;8.20;78.60;;;;;;5058702;28;20189;-51
2021/03/20 11:19:36;;;;;;;5.30;4.40;;;7.80;77.00;;;;;;5055974;28;20213;-49
2021/03/20 11:22:34;;;;;;;5.17;4.10;;;7.60;77.10;;;;;;5057008;28;20163;-52
2021/03/20 11:25:23;;;;;;;5.07;4.13;;;7.40;79.10;;;;;;5056720;28;20212;-55
2021/03/20 11:28:02;;;;;;;5.77;4.87;;;7.50;77.60;;;;;;5058456;28;20191;-51
2021/03/20 11:30:44;;;;;;;4.53;4.13;;;7.60;77.20;;;;;;5063901;28;20653;-56
2021/03/20 11:33:17;;;;;;;4.33;3.90;;;8.20;74.20;;;;;;5076782;28;20167;-53
2021/03/20 11:35:48;;;;;;;4.30;3.90;;;9.10;73.10;;;;;;5066273;28;20195;-52
2021/03/20 11:38:16;;;;;;;5.17;4.43;;;10.40;70.10;;;;;;5059360;28;20686;-57
2021/03/20 11:40:48;;;;;;;4.23;3.53;;;12.10;74.20;;;;;;5056213;28;20175;-54
2021/03/20 11:43:25;;;;;;;4.93;3.83;;;14.20;68.20;;;;;;5065390;28;20703;-51
2021/03/20 11:45:53;;;;;;;4.00;3.60;;;15.30;63.00;;;;;;5066688;28;20277;-48
2021/03/20 11:48:44;;;;;;;3.80;3.40;;;16.10;61.70;;;;;;5054512;28;20190;-56
2021/03/20 11:51:20;;;;;;;3.83;3.47;;;17.20;60.40;;;;;;5069888;28;20239;-53
2021/03/20 11:53:49;;;;;;;4.33;3.87;;;17.70;57.40;;;;;;5060042;28;20189;-53
2021/03/20 11:56:23;;;;;;;4.10;3.60;;;17.40;54.50;;;;;;5054279;28;20689;-48
2021/03/20 11:59:30;;;;;;;4.23;3.80;;;16.30;53.90;;;;;;5055975;28;20209;-54
2021/03/20 12:01:56;;;;;;;6.37;4.47;;;15.10;54.30;;;;;;5054124;28;20201;-51
2021/03/20 12:04:26;;;;;;;4.30;3.90;;;14.30;55.60;;;;;;5054023;28;20645;-51
2021/03/20 12:07:12;;;;;;;4.47;4.00;;;15.40;57.70;;;;;;5054871;28;20187;-49
2021/03/20 12:09:37;;;;;;;4.23;3.70;;;12.10;56.50;;;;;;5054629;28;20164;-50
2021/03/20 12:12:04;;;;;;;4.47;4.07;;;11.10;58.40;;;;;;5055005;28;20168;-54
2021/03/20 12:14:43;;;;;;;5.23;4.43;;;10.10;61.70;;;;;;5055053;28;20178;-58
2021/03/20 12:17:09;;;;;;;4.30;3.80;;;10.40;64.50;;;;;;5055478;28;20254;-58
2021/03/20 12:20:06;;;;;;;3.83;3.53;;;12.30;61.80;;;;;;5055110;28;20243;-50
2021/03/20 12:22:42;;;;;;;3.83;3.50;;;13.50;57.70;;;;;;5054286;28;20179;-51
2021/03/20 12:25:39;;;;;;;5.23;4.73;;;14.00;55.60;;;;;;5054145;28;20201;-54
2021/03/20 12:28:31;;;;;;;4.20;3.80;;;13.60;53.80;;;;;;5055360;28;20178;-56
2021/03/20 12:31:17;;;;;;;4.00;3.60;;;12.90;56.80;;;;;;5053201;28;20181;-56
2021/03/20 12:33:50;;;;;;;5.07;4.57;;;11.80;59.90;;;;;;5060309;28;20218;-57
2021/03/20 12:36:24;;;;;;;4.67;4.17;;;10.90;63.60;;;;;;5069263;28;20618;-51
2021/03/20 12:38:49;;;;;;;5.20;4.70;;;10.40;66.20;;;;;;5073715;28;20203;-50
2021/03/20 12:41:23;;;;;;;4.53;4.13;;;9.60;71.00;;;;;;5064736;28;20738;-56
2021/03/20 12:44:08;;;;;;;4.73;4.33;;;9.00;74.10;;;;;;5073107;28;20224;-51
2021/03/20 12:46:35;;;;;;;5.43;4.70;;;8.30;76.10;;;;;;5074897;28;20201;-53
2021/03/20 12:49:02;;;;;;;4.60;4.03;;;7.90;77.10;;;;;;5073936;28;20224;-58
2021/03/20 12:51:28;;;;;;;5.93;4.60;;;7.60;77.90;;;;;;5074278;28;20240;-50
2021/03/20 12:53:53;;;;;;;4.30;3.70;;;7.30;78.20;;;;;;5074005;28;20182;-49
2021/03/20 12:56:19;;;;;;;4.57;4.17;;;6.90;78.50;;;;;;5073919;28;20238;-54
2021/03/20 12:58:45;;;;;;;3.70;3.40;;;6.70;77.60;;;;;;5075424;28;20665;-51
2021/03/20 13:01:10;;;;;;;4.70;4.23;;;6.40;79.40;;;;;;5074793;28;20182;-49
2021/03/20 13:03:37;;;;;;;8.47;7.53;;;6.50;80.40;;;;;;5074202;28;20300;-56
2021/03/20 13:06:04;;;;;;;5.57;4.57;;;6.40;80.90;;;;;;5074184;28;20239;-54
2021/03/20 13:08:30;;;;;;;4.67;4.17;;;6.50;80.30;;;;;;5073399;28;20262;-53
2021/03/20 13:10:56;;;;;;;4.80;3.67;;;6.40;80.70;;;;;;5073987;28;20217;-53
2021/03/20 13:13:21;;;;;;;5.20;4.47;;;6.00;79.80;;;;;;5074649;28;20185;-53
2021/03/20 13:15:48;;;;;;;4.70;4.20;;;5.70;81.90;;;;;;5074207;28;20384;-52
2021/03/20 13:18:14;;;;;;;4.33;3.93;;;5.60;80.80;;;;;;5075032;28;20209;-50
2021/03/20 13:20:40;;;;;;;5.27;4.70;;;5.70;79.70;;;;;;5073865;28;20627;-49
2021/03/20 13:23:06;;;;;;;5.40;4.57;;;5.80;81.50;;;;;;5073844;28;20179;-50
2021/03/20 13:25:35;;;;;;;5.37;4.67;;;5.90;80.00;;;;;;5074497;28;20201;-53
2021/03/20 13:28:06;;;;;;;5.53;4.97;;;6.00;80.90;;;;;;5074227;28;20171;-53
2021/03/20 13:30:35;;;;;;;6.17;4.93;;;6.10;80.80;;;;;;5073577;28;20174;-49
2021/03/20 13:33:01;;;;;;;5.20;4.40;;;6.30;81.40;;;;;;5074524;28;20178;-52
2021/03/20 13:35:31;;;;;;;4.80;4.30;;;6.20;76.40;;;;;;5055601;28;20225;-48
2021/03/20 13:37:57;;;;;;;4.90;4.40;;;5.80;75.30;;;;;;5072267;28;20210;-51
2021/03/20 13:40:25;;;;;;;4.63;4.13;;;5.90;78.30;;;;;;5074028;28;20171;-49